METAR Data
IDs: Format: Raw Decoded Include TAF

Data at: 0122 UTC 24 Sep 2018

KCFE 240115Z AUTO 10005KT 10SM CLR 19/10 A2992 RMK AO2 T01860102
KCFE 240055Z AUTO 10005KT 10SM CLR 19/10 A2992 RMK AO2 T01890100
KCFE 240035Z AUTO 10007KT 10SM CLR 20/10 A2991 RMK AO2 T01960101
KCFE 240015Z AUTO 10006KT 10SM CLR 20/11 A2992 RMK AO2 T02010105
KCFE 232355Z AUTO 11005KT 10SM CLR 21/11 A2992 RMK AO2 T02090107 10235 20209
KCFE 232335Z AUTO 11006KT 10SM CLR 22/11 A2992 RMK AO2 T02160105
KCFE 232315Z AUTO 11008KT 10SM CLR 22/11 A2992 RMK AO2 T02230105
KCFE 232255Z AUTO 12010KT 10SM CLR 23/10 A2993 RMK AO2 T02250100
KCFE 232235Z AUTO 12009G16KT 10SM CLR 23/10 A2993 RMK AO2 T02300098
KCFE 232215Z AUTO 12009KT 10SM CLR 23/10 A2993 RMK AO2 T02320101
KCFE 232155Z AUTO 13011G16KT 10SM CLR 23/10 A2993 RMK AO2 T02300104
KCFE 232135Z AUTO 11010G17KT 10SM CLR 24/11 A2993 RMK AO2 T02350107
KCFE 232115Z AUTO 12013G18KT 10SM CLR 23/11 A2994 RMK AO2 T02320109
KCFE 232055Z AUTO 12010G17KT 090V150 10SM CLR 23/11 A2994 RMK AO2 T02300113
KCFE 232035Z AUTO 11010G18KT 10SM CLR 23/11 A2995 RMK AO2 T02280114
KCFE 232015Z AUTO 11009G17KT 10SM CLR 23/12 A2996 RMK AO2 T02300117
KCFE 231955Z AUTO 10008G15KT 10SM CLR 23/12 A2997 RMK AO2 T02260115
KCFE 231935Z AUTO 11009G15KT 10SM CLR 22/11 A2998 RMK AO2 T02210110
KCFE 231915Z AUTO 12009G15KT 080V140 10SM CLR 22/12 A2998 RMK AO2 T02240115
KCFE 231855Z AUTO 11011G16KT 10SM CLR 22/11 A2999 RMK AO2 T02180108
KCFE 231835Z AUTO 12009G16KT 10SM CLR 22/11 A2999 RMK AO2 T02170110
KCFE 231815Z AUTO 11008KT 10SM CLR 21/11 A3000 RMK AO2 T02120110
KCFE 231755Z AUTO 12010KT 10SM CLR 21/11 A3001 RMK AO2 T02110110 10211 20110
KCFE 231735Z AUTO 11007KT 10SM CLR 21/11 A3002 RMK AO2 T02070109
KCFE 231715Z AUTO 12006KT 10SM CLR 21/11 A3003 RMK AO2 T02050107
KCFE 231655Z AUTO 15005KT 110V170 10SM CLR 20/10 A3004 RMK AO2 T01960103
KCFE 231635Z AUTO 12004KT 10SM CLR 19/10 A3005 RMK AO2 T01910102
KCFE 231615Z AUTO 16004KT 10SM CLR 19/10 A3005 RMK AO2 T01880099
KCFE 231555Z AUTO 14006KT 10SM CLR 18/10 A3004 RMK AO2 T01810100
KCFE 231535Z AUTO 15005KT 10SM CLR 18/10 A3005 RMK AO2 T01760099
KCFE 231515Z AUTO 15007KT 10SM CLR 17/10 A3005 RMK AO2 T01670096
KCFE 231455Z AUTO 17006KT 10SM CLR 16/09 A3005 RMK AO2 T01620094
KCFE 231435Z AUTO 18005KT 10SM CLR 16/10 A3005 RMK AO2 T01570095
KCFE 231415Z AUTO 19004KT 10SM CLR 15/09 A3004 RMK AO2 T01510093
KCFE 231355Z AUTO 17006KT 10SM CLR 14/09 A3003 RMK AO2 T01440091
KCFE 231335Z AUTO 16006KT 10SM CLR 14/09 A3003 RMK AO2 T01350091
KCFE 231315Z AUTO 16003KT 10SM CLR 13/09 A3003 RMK AO2 T01270089
KCFE 231255Z AUTO 16005KT 10SM CLR 12/09 A3003 RMK AO2 T01200086
KCFE 231235Z AUTO 16004KT 10SM CLR 12/09 A3003 RMK AO2 T01180086
KCFE 231215Z AUTO 16005KT 10SM CLR 11/08 A3003 RMK AO2 T01130083
KCFE 231155Z AUTO 15005KT 10SM CLR 11/08 A3004 RMK AO2 T01100082 10120 20108
KCFE 231135Z AUTO 00000KT 10SM CLR 11/08 A3004 RMK AO2 T01080081
KCFE 231115Z AUTO 15003KT 10SM CLR 11/08 A3004 RMK AO2 T01080080
KCFE 231055Z AUTO 15003KT 10SM CLR 11/08 A3004 RMK AO2 T01120082
KCFE 231035Z AUTO 15003KT 10SM CLR 11/08 A3003 RMK AO2 T01100081
KCFE 231015Z AUTO 14003KT 10SM CLR 11/08 A3003 RMK AO2 T01120082
KCFE 230955Z AUTO 00000KT 10SM CLR 11/08 A3003 RMK AO2 T01130081
KCFE 230935Z AUTO 15004KT 10SM CLR 12/08 A3003 RMK AO2 T01150081
KCFE 230915Z AUTO 17003KT 10SM CLR 12/08 A3004 RMK AO2 T01160082
KCFE 230855Z AUTO 16003KT 10SM CLR 12/08 A3004 RMK AO2 T01180082
KCFE 230835Z AUTO 16004KT 10SM CLR 12/08 A3004 RMK AO2 T01180081
KCFE 230815Z AUTO 17003KT 10SM CLR 12/08 A3004 RMK AO2 T01180080
KCFE 230755Z AUTO 17005KT 10SM CLR 12/08 A3005 RMK AO2 T01200080
KCFE 230735Z AUTO 16003KT 10SM CLR 12/08 A3005 RMK AO2 T01180080
KCFE 230715Z AUTO 16003KT 10SM CLR 12/08 A3005 RMK AO2 T01180080
KCFE 230655Z AUTO 16003KT 10SM CLR 12/08 A3005 RMK AO2 T01190080
KCFE 230635Z AUTO 16003KT 10SM CLR 12/08 A3005 RMK AO2 T01180080
KCFE 230615Z AUTO 00000KT 10SM CLR 12/08 A3006 RMK AO2 T01200080
KCFE 230555Z AUTO 15004KT 10SM CLR 12/08 A3005 RMK AO2 T01180081 10167 20093 401900045
KCFE 230535Z AUTO 15003KT 10SM CLR 11/08 A3006 RMK AO2 T01110078
KCFE 230515Z AUTO 00000KT 10SM CLR 10/08 A3006 RMK AO2 T01040081
KCFE 230455Z AUTO 00000KT 10SM SCT095 10/07 A3006 RMK AO2 T00960074
KCFE 230435Z AUTO 00000KT 10SM SCT095 10/07 A3007 RMK AO2 T00970072
KCFE 230415Z AUTO 00000KT 10SM CLR 11/08 A3006 RMK AO2 T01060075
KCFE 230355Z AUTO 00000KT 10SM CLR 11/08 A3006 RMK AO2 T01130076
KCFE 230335Z AUTO 00000KT 10SM CLR 12/08 A3006 RMK AO2 T01180076
KCFE 230315Z AUTO 00000KT 10SM CLR 13/08 A3005 RMK AO2 T01280081
KCFE 230255Z AUTO 00000KT 10SM CLR 13/08 A3006 RMK AO2 T01280080
KCFE 230235Z AUTO 00000KT 10SM CLR 13/08 A3005 RMK AO2 T01270077
KCFE 230215Z AUTO 00000KT 10SM CLR 14/08 A3005 RMK AO2 T01350080
KCFE 230155Z AUTO 00000KT 10SM CLR 15/08 A3005 RMK AO2 T01450080
KCFE 230135Z AUTO 15004KT 10SM CLR 15/08 A3004 RMK AO2 T01460078
KCFE 230115Z AUTO 15004KT 10SM CLR 15/08 A3004 RMK AO2 T01520078
KCFE 230055Z AUTO 15004KT 10SM CLR 15/08 A3004 RMK AO2 T01520078
KCFE 230035Z AUTO 15003KT 10SM CLR 15/08 A3004 RMK AO2 T01520079
KCFE 230015Z AUTO 14004KT 10SM CLR 16/08 A3004 RMK AO2 T01590078
KCFE 222355Z AUTO 14004KT 10SM CLR 17/08 A3004 RMK AO2 T01670078 10190 20156
KCFE 222335Z AUTO 16006KT 10SM CLR 18/07 A3005 RMK AO2 T01760074
KCFE 222315Z AUTO 15006KT 10SM CLR 18/07 A3005 RMK AO2 T01840072
KCFE 222255Z AUTO 17009KT 10SM CLR 19/07 A3006 RMK AO2 T01860069
KCFE 222235Z AUTO 17008G16KT 10SM CLR 19/06 A3007 RMK AO2 T01870062
KCFE 222215Z AUTO 16008KT 130V200 10SM CLR 19/07 A3007 RMK AO2 T01860070
KCFE 222155Z AUTO 17008KT 10SM CLR 19/07 A3008 RMK AO2 T01890071
KCFE 222135Z AUTO 16007KT 10SM CLR 19/07 A3009 RMK AO2 T01870071
KCFE 222115Z AUTO 16008KT 10SM CLR 18/07 A3009 RMK AO2 T01810065
KCFE 222055Z AUTO 15009G15KT 10SM CLR 19/07 A3010 RMK AO2 T01850069
KCFE 222035Z AUTO 16009G16KT 130V190 10SM CLR 18/06 A3011 RMK AO2 T01800062
KCFE 222015Z AUTO 17007G14KT 10SM CLR 18/06 A3012 RMK AO2 T01770059
KCFE 221955Z AUTO 17010KT 10SM CLR 18/06 A3013 RMK AO2 T01770059
KCFE 221935Z AUTO 17008G15KT 10SM CLR 17/06 A3015 RMK AO2 T01710055
KCFE 221915Z AUTO 18011G14KT 10SM CLR 17/06 A3016 RMK AO2 T01670056
KCFE 221855Z AUTO 17007G14KT 140V200 10SM CLR 17/05 A3016 RMK AO2 T01670053
KCFE 221835Z AUTO 17008G14KT 10SM CLR 16/06 A3018 RMK AO2 T01640057
KCFE 221815Z AUTO 18010G15KT 10SM CLR 16/05 A3019 RMK AO2 T01580050
KCFE 221755Z AUTO 18009G14KT 150V210 10SM CLR 16/05 A3021 RMK AO2 T01570053 10157 20061
KCFE 221735Z AUTO 16007G15KT 10SM CLR 15/05 A3022 RMK AO2 T01510050
KCFE 221715Z AUTO 16008G16KT 10SM CLR 15/05 A3023 RMK AO2 T01490045
KCFE 221655Z AUTO 16010G15KT 10SM CLR 14/05 A3024 RMK AO2 T01430046
KCFE 221635Z AUTO 17008G16KT 10SM CLR 14/04 A3024 RMK AO2 T01350043
KCFE 221615Z AUTO 18009G15KT 10SM CLR 13/04 A3026 RMK AO2 T01330043
KCFE 221555Z AUTO 16010G19KT 10SM CLR 13/04 A3026 RMK AO2 T01270035
KCFE 221535Z AUTO 18010G15KT 10SM CLR 13/03 A3028 RMK AO2 T01250034
KCFE 221515Z AUTO 18007KT 10SM CLR 12/04 A3029 RMK AO2 T01220042
KCFE 221455Z AUTO 17008G16KT 10SM CLR 11/04 A3029 RMK AO2 T01130040
KCFE 221435Z AUTO 16007KT 150V210 10SM CLR 11/05 A3029 RMK AO2 T01080053
KCFE 221415Z AUTO 17007KT 10SM CLR 10/06 A3029 RMK AO2 T01010055
KCFE 221355Z AUTO 16006KT 10SM CLR 09/06 A3028 RMK AO2 T00920055
KCFE 221335Z AUTO 18007KT 10SM CLR 08/05 A3029 RMK AO2 T00830051